Time;durP1;ratioP1;P1;durP2;ratioP2;P2;SDS_P1;SDS_P2;PMS_P1;PMS_P2;Temp;Humidity;BMP_temperature;BMP_pressure;BME280_temperature;BME280_humidity;BME280_pressure;Samples;Min_cycle;Max_cycle;Signal;HPM_P1;HPM_P2
2023/02/11 00:02:22;;;;;;;4.13;2.20;;;24.20;49.70;;;;;;5011867;28;20193;-54
2023/02/11 00:04:52;;;;;;;4.15;2.47;;;24.20;49.70;;;;;;5011947;28;20607;-55
2023/02/11 00:07:23;;;;;;;4.65;2.00;;;24.20;49.60;;;;;;5011388;28;20193;-56
2023/02/11 00:09:54;;;;;;;3.85;2.20;;;24.20;49.50;;;;;;5011690;28;20221;-54
2023/02/11 00:12:25;;;;;;;3.85;2.33;;;24.30;49.60;;;;;;5011795;28;20208;-56
2023/02/11 00:14:55;;;;;;;4.55;2.20;;;24.30;49.50;;;;;;5011844;28;20204;-55
2023/02/11 00:17:28;;;;;;;2.95;1.50;;;24.30;49.50;;;;;;5011478;28;20360;-55
2023/02/11 00:19:58;;;;;;;5.00;1.90;;;24.30;49.40;;;;;;5011403;28;20217;-55
2023/02/11 00:22:29;;;;;;;3.10;1.88;;;24.30;49.40;;;;;;5011837;28;20201;-54
2023/02/11 00:25:00;;;;;;;2.75;1.85;;;24.30;49.30;;;;;;5011916;28;20574;-56
2023/02/11 00:27:30;;;;;;;2.80;1.60;;;24.40;49.30;;;;;;5011635;28;20555;-54
2023/02/11 00:30:01;;;;;;;2.10;1.63;;;24.40;49.20;;;;;;5011481;28;20223;-54
2023/02/11 00:32:34;;;;;;;4.93;2.25;;;24.40;49.20;;;;;;5011742;28;20200;-53
2023/02/11 00:35:04;;;;;;;5.05;1.75;;;24.40;49.20;;;;;;5011786;28;20205;-52
2023/02/11 00:37:35;;;;;;;2.50;1.65;;;24.50;49.10;;;;;;5011738;28;20228;-55
2023/02/11 00:40:06;;;;;;;3.38;1.90;;;24.50;49.10;;;;;;5011945;28;20217;-51
2023/02/11 00:42:37;;;;;;;4.28;1.75;;;24.50;49.10;;;;;;5009166;28;20185;-53
2023/02/11 00:45:08;;;;;;;3.63;1.95;;;24.50;49.10;;;;;;4991838;28;20299;-53
2023/02/11 00:47:41;;;;;;;4.35;1.92;;;24.60;49.10;;;;;;4993319;28;20220;-53
2023/02/11 00:50:12;;;;;;;3.67;2.03;;;24.60;49.00;;;;;;4995704;28;20222;-55
2023/02/11 00:52:42;;;;;;;2.28;1.52;;;24.60;49.00;;;;;;4995640;28;20661;-55
2023/02/11 00:55:13;;;;;;;2.83;1.50;;;24.60;49.00;;;;;;4995794;28;20197;-54
2023/02/11 00:57:44;;;;;;;2.85;1.73;;;24.60;48.90;;;;;;4995711;28;20232;-52
2023/02/11 01:00:16;;;;;;;2.42;1.70;;;24.70;48.90;;;;;;4995820;28;20225;-53
2023/02/11 01:02:49;;;;;;;2.83;1.40;;;24.70;48.80;;;;;;4995303;28;20563;-51
2023/02/11 01:05:20;;;;;;;1.73;1.02;;;24.70;48.80;;;;;;4995626;28;20213;-52
2023/02/11 01:07:50;;;;;;;1.90;1.35;;;24.70;48.70;;;;;;5004820;28;20209;-53
2023/02/11 01:10:21;;;;;;;2.63;1.42;;;24.80;48.70;;;;;;5014852;28;20216;-54
2023/02/11 01:12:52;;;;;;;3.30;1.75;;;24.80;48.70;;;;;;5015145;28;20208;-50
2023/02/11 01:15:23;;;;;;;3.20;1.25;;;24.80;48.60;;;;;;5014642;28;20589;-53
2023/02/11 01:17:56;;;;;;;2.70;1.48;;;24.80;48.60;;;;;;5014362;28;20225;-53
2023/02/11 01:20:28;;;;;;;1.55;1.23;;;24.90;48.60;;;;;;5014627;28;20571;-52
2023/02/11 01:22:59;;;;;;;3.30;1.30;;;24.90;48.60;;;;;;5014996;28;20204;-54
2023/02/11 01:25:29;;;;;;;2.58;1.27;;;24.90;48.50;;;;;;5015529;28;20200;-54
2023/02/11 01:28:00;;;;;;;2.63;1.45;;;24.90;48.50;;;;;;5011502;28;20201;-54
2023/02/11 01:30:31;;;;;;;2.33;1.40;;;25.00;48.50;;;;;;5014689;28;20217;-51
2023/02/11 01:33:03;;;;;;;3.60;1.58;;;25.00;48.50;;;;;;5014726;28;20197;-53
2023/02/11 01:35:34;;;;;;;2.58;1.40;;;25.00;48.40;;;;;;5014508;28;20201;-53
2023/02/11 01:38:04;;;;;;;2.88;1.27;;;25.00;48.40;;;;;;5014548;28;20229;-51
2023/02/11 01:40:36;;;;;;;2.00;1.40;;;25.10;48.40;;;;;;5015029;28;20217;-55
2023/02/11 01:43:06;;;;;;;2.85;1.45;;;25.10;48.30;;;;;;5013937;28;20193;-53
2023/02/11 01:46:01;;;;;;;1.38;1.05;;;25.10;48.20;;;;;;5014398;28;20352;-52
2023/02/11 01:48:37;;;;;;;2.65;1.17;;;25.10;48.10;;;;;;4987729;28;20284;-51
2023/02/11 01:51:12;;;;;;;2.80;1.23;;;25.20;48.10;;;;;;5013901;28;20217;-52
2023/02/11 01:59:24;;;;;;;2.20;1.08;;;25.20;48.00;;;;;;5013031;28;20204;-53
2023/02/11 02:01:59;;;;;;;1.60;1.20;;;25.30;48.00;;;;;;5013656;28;20272;-51
2023/02/11 02:04:40;;;;;;;2.80;1.38;;;25.30;48.00;;;;;;5013536;28;20696;-54
2023/02/11 02:07:15;;;;;;;2.45;1.08;;;25.30;47.90;;;;;;5013718;28;20197;-51
2023/02/11 02:09:50;;;;;;;1.25;1.05;;;25.30;47.90;;;;;;5013269;28;20644;-52
2023/02/11 02:12:21;;;;;;;1.98;1.13;;;25.30;47.80;;;;;;5013629;28;20196;-50
2023/02/11 02:14:52;;;;;;;1.90;1.15;;;25.40;47.80;;;;;;5013804;28;20201;-53
2023/02/11 02:17:35;;;;;;;1.50;0.90;;;25.40;47.70;;;;;;5014299;28;20567;-51
2023/02/11 02:20:42;;;;;;;1.77;1.05;;;25.40;47.70;;;;;;5014208;28;20232;-51
2023/02/11 02:23:52;;;;;;;2.22;1.10;;;25.50;47.70;;;;;;4997719;28;20200;-50
2023/02/11 02:27:10;;;;;;;1.80;1.02;;;25.50;47.70;;;;;;5006279;28;20215;-54
2023/02/11 02:30:20;;;;;;;2.83;1.15;;;25.50;47.60;;;;;;5013518;28;20566;-49
2023/02/11 02:33:08;;;;;;;1.83;1.00;;;25.60;47.60;;;;;;5013779;28;20645;-48
2023/02/11 02:35:44;;;;;;;1.40;1.00;;;25.60;47.60;;;;;;5010778;28;20193;-54
2023/02/11 02:38:22;;;;;;;1.90;1.00;;;25.60;47.50;;;;;;5006239;28;20232;-52
2023/02/11 02:40:56;;;;;;;2.05;1.00;;;25.70;47.40;;;;;;5013709;28;20633;-50
2023/02/11 02:43:29;;;;;;;2.13;1.17;;;25.70;47.40;;;;;;5013355;28;20205;-51
2023/02/11 02:46:16;;;;;;;2.55;1.05;;;25.70;47.30;;;;;;5013417;28;20197;-50
2023/02/11 02:48:51;;;;;;;2.03;1.17;;;25.70;47.30;;;;;;5013258;28;20196;-50
2023/02/11 02:51:42;;;;;;;3.40;1.10;;;25.80;47.20;;;;;;5012852;28;20564;-52
2023/02/11 02:54:49;;;;;;;1.42;1.00;;;25.80;47.20;;;;;;4971031;28;20197;-50
2023/02/11 02:57:32;;;;;;;1.42;0.88;;;25.80;47.10;;;;;;5013134;28;20224;-50
2023/02/11 03:00:24;;;;;;;1.33;0.93;;;25.80;47.10;;;;;;5012966;28;20220;-49
2023/02/11 03:03:07;;;;;;;1.50;0.90;;;25.90;47.20;;;;;;5012735;28;20649;-50
2023/02/11 03:05:48;;;;;;;1.73;0.90;;;25.90;47.10;;;;;;5012766;28;20196;-52
2023/02/11 03:08:25;;;;;;;2.38;1.00;;;25.90;47.20;;;;;;5012602;28;20197;-50
2023/02/11 03:10:58;;;;;;;3.55;1.00;;;26.00;47.30;;;;;;5011527;28;20740;-51
2023/02/11 03:13:33;;;;;;;2.00;1.13;;;26.00;47.20;;;;;;5012735;28;20203;-51
2023/02/11 03:16:10;;;;;;;1.80;0.90;;;26.00;47.10;;;;;;5012849;28;20259;-52
2023/02/11 03:18:46;;;;;;;3.17;1.20;;;26.00;47.10;;;;;;5012778;28;20311;-51
2023/02/11 03:21:20;;;;;;;1.92;1.15;;;26.10;47.10;;;;;;5012748;28;20618;-52
2023/02/11 03:23:55;;;;;;;1.83;1.00;;;26.10;47.10;;;;;;5012682;28;20621;-52
2023/02/11 03:26:30;;;;;;;1.33;0.82;;;26.10;47.10;;;;;;5013212;28;20215;-50
2023/02/11 03:29:06;;;;;;;3.03;1.05;;;26.20;47.10;;;;;;5012601;28;20684;-52
2023/02/11 03:31:43;;;;;;;2.05;1.00;;;26.20;47.10;;;;;;5012557;28;20596;-55
2023/02/11 03:34:17;;;;;;;2.78;1.33;;;26.20;47.00;;;;;;5012085;28;20192;-53
2023/02/11 03:36:55;;;;;;;1.30;0.82;;;26.20;47.00;;;;;;5001008;28;20190;-53
2023/02/11 03:39:33;;;;;;;3.05;1.27;;;26.30;47.10;;;;;;5012379;28;20198;-53
2023/02/11 03:42:08;;;;;;;3.35;1.05;;;26.30;47.00;;;;;;5012417;28;20197;-54
2023/02/11 03:44:43;;;;;;;2.30;1.20;;;26.30;47.00;;;;;;5012297;28;20200;-54
2023/02/11 03:47:16;;;;;;;1.67;0.95;;;26.40;47.00;;;;;;5012288;28;20192;-53
2023/02/11 03:49:49;;;;;;;2.03;0.90;;;26.40;46.90;;;;;;5012216;28;20557;-55
2023/02/11 03:52:23;;;;;;;3.50;1.30;;;26.40;46.90;;;;;;5012498;28;20201;-51
2023/02/11 03:55:01;;;;;;;3.03;1.08;;;26.50;47.00;;;;;;5012337;28;20284;-52
2023/02/11 03:57:35;;;;;;;3.58;1.30;;;26.50;46.90;;;;;;5011693;28;20239;-53
2023/02/11 04:00:06;;;;;;;2.25;1.10;;;26.50;46.90;;;;;;5011598;28;20220;-48
2023/02/11 04:02:39;;;;;;;2.67;0.98;;;26.60;47.60;;;;;;5011651;28;20204;-50
2023/02/11 04:05:11;;;;;;;2.33;1.00;;;26.60;47.00;;;;;;5011639;28;20208;-49
2023/02/11 04:07:44;;;;;;;1.85;0.80;;;26.60;47.00;;;;;;5011694;28;20211;-52
2023/02/11 04:10:15;;;;;;;1.52;0.80;;;26.60;46.90;;;;;;5011415;28;20222;-48
2023/02/11 04:12:45;;;;;;;1.17;0.90;;;26.70;46.90;;;;;;5011688;28;20200;-49
2023/02/11 04:15:16;;;;;;;1.75;1.00;;;26.70;46.90;;;;;;5011768;28;20200;-51
2023/02/11 04:17:47;;;;;;;2.30;0.90;;;26.80;47.00;;;;;;5011654;28;20587;-48
2023/02/11 04:20:17;;;;;;;4.15;1.05;;;26.80;47.00;;;;;;5011676;28;20230;-49
2023/02/11 04:22:50;;;;;;;2.90;1.27;;;26.80;46.90;;;;;;5011516;28;20210;-50
2023/02/11 04:25:20;;;;;;;1.60;0.82;;;26.80;46.80;;;;;;5011683;28;20197;-49
2023/02/11 04:27:51;;;;;;;3.47;1.02;;;26.90;47.00;;;;;;5011238;28;20220;-51
2023/02/11 04:30:22;;;;;;;2.67;1.00;;;26.90;46.90;;;;;;5011676;28;20233;-49
2023/02/11 04:32:53;;;;;;;3.72;1.20;;;26.90;46.90;;;;;;5011811;28;20196;-48
2023/02/11 04:35:23;;;;;;;1.85;0.93;;;27.00;46.90;;;;;;5011722;28;20196;-49
2023/02/11 04:37:56;;;;;;;3.30;1.42;;;27.00;46.90;;;;;;5010853;28;20239;-52
2023/02/11 04:40:26;;;;;;;2.42;1.02;;;27.00;46.90;;;;;;4994784;28;20224;-50
2023/02/11 04:42:58;;;;;;;4.05;1.20;;;27.00;46.90;;;;;;4991896;28;20201;-50
2023/02/11 04:45:29;;;;;;;1.52;0.85;;;27.00;46.90;;;;;;4992049;28;20227;-52
2023/02/11 04:48:00;;;;;;;3.00;1.00;;;27.00;46.80;;;;;;4992621;28;20291;-49
2023/02/11 04:50:30;;;;;;;2.50;1.30;;;27.00;46.90;;;;;;4992139;28;20226;-52
2023/02/11 04:53:03;;;;;;;2.50;1.13;;;27.10;46.90;;;;;;4992414;28;20200;-48
2023/02/11 04:55:33;;;;;;;3.03;1.20;;;27.10;46.90;;;;;;4992310;28;20208;-52
2023/02/11 04:58:04;;;;;;;2.97;1.10;;;27.10;46.90;;;;;;4991796;28;20230;-52
2023/02/11 05:00:35;;;;;;;2.20;0.93;;;27.10;46.80;;;;;;4991725;28;20232;-52
2023/02/11 05:03:06;;;;;;;3.40;1.05;;;27.10;46.80;;;;;;4992159;28;20197;-51
2023/02/11 05:05:39;;;;;;;2.03;0.98;;;27.20;46.90;;;;;;4991971;28;20202;-49
2023/02/11 05:08:12;;;;;;;2.55;1.05;;;27.20;46.90;;;;;;5003457;28;20204;-52
2023/02/11 05:10:47;;;;;;;2.17;1.00;;;27.20;46.90;;;;;;5011214;28;20374;-51
2023/02/11 05:13:17;;;;;;;1.77;0.90;;;27.20;46.90;;;;;;5011280;28;20206;-52
2023/02/11 05:15:49;;;;;;;3.95;1.25;;;27.20;46.80;;;;;;4993925;28;20197;-48
2023/02/11 05:18:19;;;;;;;3.25;1.20;;;27.20;47.40;;;;;;5011370;28;20224;-50
2023/02/11 05:20:50;;;;;;;2.33;1.13;;;27.20;46.80;;;;;;5011166;28;20239;-51
2023/02/11 05:23:23;;;;;;;3.20;1.15;;;27.20;46.70;;;;;;5011059;28;20566;-50
2023/02/11 05:25:54;;;;;;;3.47;1.30;;;27.20;46.70;;;;;;5011207;28;20200;-50
2023/02/11 05:28:24;;;;;;;3.22;1.10;;;27.20;46.70;;;;;;5010907;28;20204;-51
2023/02/11 05:30:55;;;;;;;2.95;1.00;;;27.20;46.70;;;;;;5010599;28;20220;-49
2023/02/11 05:33:26;;;;;;;2.63;1.00;;;27.20;46.60;;;;;;5011365;28;20197;-50
2023/02/11 05:36:01;;;;;;;2.75;1.10;;;27.30;46.70;;;;;;5014058;28;20197;-49
2023/02/11 05:38:34;;;;;;;1.83;0.95;;;27.30;46.70;;;;;;5012632;28;20330;-50
2023/02/11 05:41:05;;;;;;;1.55;1.10;;;27.30;46.70;;;;;;5014590;28;20224;-49
2023/02/11 05:43:36;;;;;;;3.58;1.13;;;27.30;46.80;;;;;;5013984;28;20660;-51
2023/02/11 05:46:07;;;;;;;2.70;0.88;;;27.30;46.80;;;;;;5013584;28;20254;-51
2023/02/11 05:48:38;;;;;;;3.60;1.02;;;27.30;46.80;;;;;;5013939;28;20653;-50
2023/02/11 05:51:09;;;;;;;1.45;1.02;;;27.30;46.70;;;;;;5014169;28;20236;-47
2023/02/11 05:53:41;;;;;;;3.35;1.13;;;27.30;46.70;;;;;;5014694;28;20197;-50
2023/02/11 05:56:13;;;;;;;3.45;1.25;;;27.40;46.70;;;;;;5013883;28;20203;-50
2023/02/11 05:58:44;;;;;;;1.73;1.02;;;27.30;46.70;;;;;;5014017;28;20226;-50
2023/02/11 06:01:14;;;;;;;1.65;0.80;;;27.30;46.70;;;;;;5013946;28;20686;-49
2023/02/11 06:03:45;;;;;;;1.92;0.95;;;27.30;46.70;;;;;;5014084;28;20192;-49
2023/02/11 06:06:16;;;;;;;1.67;0.77;;;27.40;46.80;;;;;;5014277;28;20212;-52
2023/02/11 06:08:49;;;;;;;2.45;0.95;;;27.40;46.80;;;;;;4996962;28;20657;-49
2023/02/11 06:11:19;;;;;;;2.63;0.98;;;27.30;46.70;;;;;;5013704;28;20224;-53
2023/02/11 06:13:50;;;;;;;3.78;1.00;;;27.30;46.70;;;;;;5013994;28;20673;-55
2023/02/11 06:16:21;;;;;;;2.60;1.20;;;27.40;46.70;;;;;;5013903;28;20197;-55
2023/02/11 06:18:51;;;;;;;1.80;0.90;;;27.30;46.60;;;;;;5013264;28;20291;-55
2023/02/11 06:21:22;;;;;;;2.33;0.95;;;27.40;46.60;;;;;;5012149;28;20217;-56
2023/02/11 06:23:55;;;;;;;2.83;1.05;;;27.40;46.60;;;;;;5013811;28;20219;-56
2023/02/11 06:26:26;;;;;;;3.20;1.38;;;27.40;46.50;;;;;;5013474;28;20201;-50
2023/02/11 06:28:57;;;;;;;3.60;1.38;;;27.40;46.40;;;;;;5013022;28;20276;-51
2023/02/11 06:31:28;;;;;;;3.70;1.00;;;27.30;46.40;;;;;;5013143;28;20221;-53
2023/02/11 06:33:59;;;;;;;2.10;1.10;;;27.40;46.40;;;;;;5013068;28;20197;-54
2023/02/11 06:36:29;;;;;;;3.45;1.00;;;27.30;46.30;;;;;;5013115;28;20286;-54
2023/02/11 06:39:02;;;;;;;2.20;1.00;;;27.30;46.30;;;;;;5010213;28;20221;-56
2023/02/11 06:41:33;;;;;;;2.63;1.20;;;27.30;46.30;;;;;;5013766;28;20248;-55
2023/02/11 06:44:03;;;;;;;1.63;0.90;;;27.30;46.40;;;;;;5013149;28;20227;-53
2023/02/11 06:46:34;;;;;;;2.25;0.82;;;27.30;46.40;;;;;;5012647;28;20200;-51
2023/02/11 06:49:05;;;;;;;3.05;1.13;;;27.30;46.40;;;;;;5012869;28;20339;-55
2023/02/11 06:51:35;;;;;;;2.75;1.10;;;27.30;46.30;;;;;;5012741;28;20213;-55
2023/02/11 06:54:08;;;;;;;2.72;1.20;;;27.30;46.40;;;;;;5013043;28;20680;-52
2023/02/11 06:56:40;;;;;;;2.15;1.13;;;27.30;46.40;;;;;;5012803;28;20193;-54
2023/02/11 06:59:18;;;;;;;2.75;0.90;;;27.30;46.40;;;;;;5012667;28;20311;-54
2023/02/11 07:01:49;;;;;;;2.63;1.00;;;27.30;46.30;;;;;;5013225;28;20244;-55
2023/02/11 07:04:21;;;;;;;3.05;1.25;;;27.30;46.20;;;;;;5012936;28;20279;-52
2023/02/11 07:06:52;;;;;;;3.97;1.33;;;27.20;45.90;;;;;;5012506;28;20197;-50
2023/02/11 07:09:24;;;;;;;2.83;1.10;;;27.20;45.80;;;;;;5012559;28;20203;-55
2023/02/11 07:11:55;;;;;;;1.65;1.13;;;27.20;45.90;;;;;;5012816;28;20227;-55
2023/02/11 07:14:26;;;;;;;2.25;1.08;;;27.20;45.80;;;;;;5012622;28;20200;-55
2023/02/11 07:16:57;;;;;;;3.13;1.10;;;27.10;45.80;;;;;;5012387;28;20207;-52
2023/02/11 07:19:27;;;;;;;2.67;1.10;;;27.10;45.80;;;;;;5012308;28;20707;-55
2023/02/11 07:21:58;;;;;;;2.65;1.33;;;27.10;45.90;;;;;;5012615;28;20267;-54
2023/02/11 07:24:31;;;;;;;2.42;0.95;;;27.10;45.90;;;;;;5012751;28;20197;-53
2023/02/11 07:27:01;;;;;;;4.10;1.10;;;27.10;45.90;;;;;;5012503;28;20215;-53
2023/02/11 07:29:32;;;;;;;1.80;1.00;;;27.10;45.90;;;;;;5011657;28;20201;-54
2023/02/11 07:32:03;;;;;;;2.05;0.93;;;27.00;45.90;;;;;;5009787;28;20579;-53
2023/02/11 07:34:34;;;;;;;2.05;0.90;;;27.00;45.90;;;;;;5012410;28;20206;-55
2023/02/11 07:37:04;;;;;;;2.00;1.13;;;27.00;45.90;;;;;;5012551;28;20201;-54
2023/02/11 07:39:37;;;;;;;1.67;0.90;;;27.00;46.00;;;;;;5012453;28;20232;-52
2023/02/11 07:42:08;;;;;;;3.25;1.02;;;27.00;46.00;;;;;;5012348;28;20221;-55
2023/02/11 07:44:39;;;;;;;2.47;0.90;;;27.00;46.00;;;;;;4994003;28;20198;-55
2023/02/11 07:47:10;;;;;;;2.60;1.00;;;27.00;46.10;;;;;;4992648;28;20288;-55
2023/02/11 07:49:40;;;;;;;2.20;1.05;;;27.00;46.10;;;;;;4992839;28;20197;-50
2023/02/11 07:52:11;;;;;;;3.05;1.10;;;26.90;46.00;;;;;;4992608;28;20252;-55
2023/02/11 07:54:44;;;;;;;2.08;1.00;;;26.90;46.00;;;;;;4992692;28;20202;-53
2023/02/11 07:57:15;;;;;;;1.20;0.70;;;26.90;46.10;;;;;;4992009;28;20292;-51
2023/02/11 07:59:45;;;;;;;1.98;0.82;;;26.90;46.00;;;;;;4992420;28;20805;-52
2023/02/11 08:02:16;;;;;;;1.70;0.80;;;26.80;45.90;;;;;;4992979;28;20561;-54
2023/02/11 08:04:49;;;;;;;1.67;0.90;;;26.90;46.00;;;;;;4992483;28;20193;-54
2023/02/11 08:07:20;;;;;;;2.88;1.15;;;26.80;46.00;;;;;;4997508;28;20284;-54
2023/02/11 08:09:54;;;;;;;1.38;0.75;;;26.80;46.00;;;;;;5011732;28;20197;-55
2023/02/11 08:12:25;;;;;;;1.30;0.70;;;26.80;46.00;;;;;;5012021;28;20196;-54
2023/02/11 08:14:55;;;;;;;1.63;0.90;;;26.80;46.00;;;;;;5011834;28;20192;-53
2023/02/11 08:17:26;;;;;;;1.40;0.88;;;26.70;46.00;;;;;;5010080;28;20595;-53
2023/02/11 08:19:57;;;;;;;2.60;0.90;;;26.70;46.00;;;;;;5011367;28;20612;-52
2023/02/11 08:22:28;;;;;;;3.45;1.00;;;26.70;46.10;;;;;;5011571;28;20197;-54
2023/02/11 08:25:00;;;;;;;2.05;0.85;;;26.70;46.10;;;;;;5011760;28;20196;-54
2023/02/11 08:27:31;;;;;;;2.55;0.85;;;26.70;46.10;;;;;;5011901;28;20204;-50
2023/02/11 08:30:02;;;;;;;1.45;0.80;;;26.60;46.00;;;;;;5011793;28;20283;-53
2023/02/11 08:32:33;;;;;;;2.13;0.90;;;26.60;46.00;;;;;;5011670;28;20193;-55
2023/02/11 08:35:03;;;;;;;1.67;0.77;;;26.60;46.00;;;;;;5011694;28;20197;-54
2023/02/11 08:37:35;;;;;;;1.52;0.90;;;26.60;46.00;;;;;;5011724;28;20207;-52
2023/02/11 08:40:08;;;;;;;1.65;0.93;;;26.50;45.90;;;;;;5008923;28;20317;-55
2023/02/11 08:42:40;;;;;;;1.17;0.80;;;26.50;45.90;;;;;;5011666;28;20207;-52
2023/02/11 08:45:11;;;;;;;1.35;0.80;;;26.50;46.00;;;;;;5012020;28;20645;-52
2023/02/11 08:47:42;;;;;;;1.88;1.08;;;26.50;46.00;;;;;;5011524;28;20200;-53
2023/02/11 08:50:13;;;;;;;1.52;0.68;;;26.50;45.90;;;;;;5011310;28;20203;-54
2023/02/11 08:52:44;;;;;;;1.48;0.82;;;26.50;45.80;;;;;;5011675;28;20203;-52
2023/02/11 08:55:16;;;;;;;1.63;0.88;;;26.40;45.80;;;;;;5011524;28;20197;-55
2023/02/11 08:57:47;;;;;;;1.52;0.90;;;26.40;45.80;;;;;;5011823;28;20200;-52
2023/02/11 09:00:19;;;;;;;1.05;0.80;;;26.40;46.40;;;;;;5011157;28;20243;-54
2023/02/11 09:02:51;;;;;;;2.20;0.90;;;26.40;45.80;;;;;;5011341;28;20201;-50
2023/02/11 09:05:21;;;;;;;2.05;0.90;;;26.30;45.80;;;;;;5011292;28;20193;-55
2023/02/11 09:07:52;;;;;;;1.70;0.80;;;26.30;45.70;;;;;;5011090;28;20205;-54
2023/02/11 09:10:25;;;;;;;2.05;0.80;;;26.30;45.70;;;;;;5014525;28;20216;-55
2023/02/11 09:12:56;;;;;;;1.27;0.85;;;26.30;45.70;;;;;;5014890;28;20559;-53
2023/02/11 09:15:27;;;;;;;2.92;1.00;;;26.30;45.80;;;;;;5014875;28;20205;-55
2023/02/11 09:17:58;;;;;;;1.40;0.80;;;26.20;45.70;;;;;;5015188;28;20208;-55
2023/02/11 09:20:29;;;;;;;1.65;1.02;;;26.20;45.70;;;;;;5014711;28;20235;-54
2023/02/11 09:23:01;;;;;;;1.50;0.90;;;26.20;45.70;;;;;;5015040;28;20208;-55
2023/02/11 09:25:33;;;;;;;2.15;0.88;;;26.10;45.80;;;;;;5014921;28;20276;-55
2023/02/11 09:28:04;;;;;;;1.85;0.80;;;26.10;45.80;;;;;;5001199;28;20292;-55
2023/02/11 09:30:35;;;;;;;0.57;0.52;;;26.10;45.80;;;;;;4994713;28;20308;-54
2023/02/11 09:33:06;;;;;;;1.35;0.80;;;26.10;45.80;;;;;;4995061;28;20205;-55
2023/02/11 09:35:37;;;;;;;1.27;0.85;;;26.00;45.80;;;;;;4995058;28;20237;-56
2023/02/11 09:38:07;;;;;;;3.30;1.00;;;26.00;45.80;;;;;;5006758;28;20205;-53
2023/02/11 09:40:45;;;;;;;1.63;0.70;;;26.00;45.80;;;;;;5014398;28;20238;-56
2023/02/11 09:43:19;;;;;;;1.55;0.88;;;26.00;45.80;;;;;;5029457;23;20181;-55
2023/02/11 09:45:51;;;;;;;0.75;0.60;;;26.00;45.80;;;;;;5053344;28;20203;-52
2023/02/11 09:48:24;;;;;;;2.15;0.80;;;25.90;45.70;;;;;;5054236;28;20569;-55
2023/02/11 09:50:57;;;;;;;1.48;0.70;;;25.90;45.70;;;;;;5054086;28;20298;-51
2023/02/11 09:53:29;;;;;;;1.17;0.75;;;25.90;45.70;;;;;;5036380;28;20195;-50
2023/02/11 09:56:04;;;;;;;1.02;0.77;;;25.90;45.70;;;;;;5053821;28;20317;-54
2023/02/11 09:58:37;;;;;;;1.42;0.90;;;25.80;45.70;;;;;;5053317;28;20225;-52
2023/02/11 10:01:20;;;;;;;1.02;0.70;;;25.80;45.70;;;;;;5053355;28;20702;-53
2023/02/11 10:04:00;;;;;;;2.45;1.10;;;25.80;45.80;;;;;;5053123;28;20291;-53
2023/02/11 10:06:43;;;;;;;2.22;1.08;;;25.80;45.80;;;;;;5053221;28;20630;-51
2023/02/11 10:09:35;;;;;;;1.73;0.80;;;25.70;45.80;;;;;;5033560;28;20574;-52
2023/02/11 10:12:22;;;;;;;1.73;0.82;;;25.70;45.80;;;;;;5033195;28;20234;-47
2023/02/11 10:15:19;;;;;;;1.00;0.73;;;25.70;45.80;;;;;;5032890;28;20722;-53
2023/02/11 10:18:08;;;;;;;1.10;0.80;;;25.70;45.80;;;;;;5033051;28;20202;-49
2023/02/11 10:20:40;;;;;;;1.15;0.60;;;25.60;45.70;;;;;;5032438;28;20231;-53
2023/02/11 10:23:18;;;;;;;1.00;0.60;;;25.60;45.70;;;;;;5048422;28;20214;-54
2023/02/11 10:25:53;;;;;;;1.42;0.75;;;25.60;45.70;;;;;;5053203;28;20195;-51
2023/02/11 10:28:30;;;;;;;1.20;0.82;;;25.60;45.70;;;;;;5053229;28;20191;-52
2023/02/11 10:31:02;;;;;;;1.50;0.73;;;25.50;45.80;;;;;;5053103;28;20302;-50
2023/02/11 10:33:37;;;;;;;1.10;0.77;;;25.50;45.80;;;;;;5051860;28;20195;-55
2023/02/11 10:36:09;;;;;;;1.98;0.88;;;25.50;45.80;;;;;;5034665;28;20205;-54
2023/02/11 10:38:40;;;;;;;0.90;0.60;;;25.40;45.80;;;;;;5048762;28;20295;-51
2023/02/11 10:41:14;;;;;;;1.20;0.75;;;25.40;45.80;;;;;;5052506;28;20262;-53
2023/02/11 10:43:47;;;;;;;1.13;0.77;;;25.40;45.90;;;;;;5053150;28;20577;-54
2023/02/11 10:46:21;;;;;;;1.30;0.73;;;25.30;45.80;;;;;;5052401;28;20196;-54
2023/02/11 10:48:53;;;;;;;1.80;0.77;;;25.30;45.80;;;;;;5052343;28;20270;-53
2023/02/11 10:51:25;;;;;;;2.03;0.80;;;25.30;45.80;;;;;;5052382;28;20605;-54
2023/02/11 10:54:18;;;;;;;1.05;0.60;;;25.30;45.80;;;;;;5052845;28;20196;-55
2023/02/11 10:56:51;;;;;;;1.08;0.70;;;25.30;45.80;;;;;;5052682;28;20635;-52
2023/02/11 10:59:31;;;;;;;1.48;0.80;;;25.30;45.80;;;;;;5051756;28;20560;-52
2023/02/11 11:02:06;;;;;;;1.80;0.77;;;25.20;45.80;;;;;;5051902;28;20310;-51
2023/02/11 11:04:44;;;;;;;1.52;0.85;;;25.20;45.80;;;;;;5052372;28;20254;-54
2023/02/11 11:07:20;;;;;;;1.40;0.75;;;25.20;45.80;;;;;;5052222;28;20202;-52
2023/02/11 11:09:54;;;;;;;1.67;0.65;;;25.20;45.90;;;;;;5052271;28;20195;-52
2023/02/11 11:12:31;;;;;;;1.67;0.82;;;25.10;45.90;;;;;;5052382;28;20201;-49
2023/02/11 11:15:17;;;;;;;1.60;0.90;;;25.10;45.80;;;;;;5051861;28;20198;-54
2023/02/11 11:17:47;;;;;;;1.95;1.00;;;25.10;45.90;;;;;;5052522;28;20195;-51
2023/02/11 11:20:23;;;;;;;1.05;0.60;;;25.10;45.90;;;;;;5052205;28;20230;-53
2023/02/11 11:23:13;;;;;;;1.35;0.77;;;25.00;45.90;;;;;;5052238;28;20639;-50
2023/02/11 11:25:46;;;;;;;1.23;0.70;;;25.00;45.90;;;;;;5051970;28;20210;-52
2023/02/11 11:28:25;;;;;;;1.52;0.80;;;25.00;46.00;;;;;;5051353;28;20201;-52
2023/02/11 11:30:59;;;;;;;0.80;0.73;;;24.90;46.00;;;;;;5051797;28;20222;-52
2023/02/11 11:33:32;;;;;;;0.98;0.52;;;25.00;46.00;;;;;;5051266;28;20290;-53
2023/02/11 11:36:09;;;;;;;1.45;0.93;;;24.90;46.00;;;;;;5049103;28;20195;-50
2023/02/11 11:38:45;;;;;;;1.40;0.85;;;24.90;46.00;;;;;;5048019;28;20281;-52
2023/02/11 11:41:29;;;;;;;1.65;0.90;;;24.90;46.10;;;;;;5051733;28;20238;-51
2023/02/11 11:44:06;;;;;;;1.58;0.85;;;24.90;46.00;;;;;;5081684;22;20241;-53
2023/02/11 11:46:41;;;;;;;0.95;0.68;;;24.90;46.10;;;;;;5112563;28;20676;-51
2023/02/11 11:49:24;;;;;;;2.10;0.90;;;24.90;46.10;;;;;;5112650;28;20200;-50
2023/02/11 11:52:00;;;;;;;1.85;0.90;;;24.80;46.00;;;;;;5112373;28;20688;-52
2023/02/11 11:54:32;;;;;;;1.23;0.70;;;24.80;46.00;;;;;;5112739;28;20300;-53
2023/02/11 11:57:11;;;;;;;1.20;0.70;;;24.70;46.00;;;;;;5112708;27;20193;-50
2023/02/11 11:59:42;;;;;;;1.27;0.75;;;24.70;46.10;;;;;;5112267;28;20201;-50
2023/02/11 12:02:40;;;;;;;2.33;0.75;;;24.70;46.10;;;;;;5112421;28;20691;-51
2023/02/11 12:05:16;;;;;;;1.67;0.80;;;24.70;46.10;;;;;;5109834;28;20194;-51
2023/02/11 12:08:01;;;;;;;1.05;0.73;;;24.70;46.10;;;;;;5111957;28;20555;-52
2023/02/11 12:11:03;;;;;;;2.05;0.88;;;24.60;46.10;;;;;;5111744;28;20301;-53
2023/02/11 12:13:51;;;;;;;1.45;0.80;;;24.60;46.20;;;;;;5112349;28;20204;-53
2023/02/11 12:16:30;;;;;;;1.27;0.88;;;24.60;46.10;;;;;;5112075;28;20209;-51
2023/02/11 12:19:35;;;;;;;1.85;0.80;;;24.60;46.20;;;;;;5112226;28;20674;-48
2023/02/11 12:22:13;;;;;;;1.13;0.60;;;24.50;46.20;;;;;;5093078;28;20216;-51
2023/02/11 12:25:09;;;;;;;1.30;0.75;;;24.50;46.10;;;;;;5111919;28;20648;-50
2023/02/11 12:27:51;;;;;;;2.35;0.70;;;24.50;46.10;;;;;;5110286;28;20208;-51
2023/02/11 12:30:39;;;;;;;1.42;0.77;;;24.50;46.20;;;;;;5111385;28;20309;-50
2023/02/11 12:33:23;;;;;;;2.42;0.80;;;24.50;46.20;;;;;;5109709;28;20194;-50
2023/02/11 12:36:01;;;;;;;1.13;0.80;;;24.40;46.20;;;;;;5111781;28;20203;-54
2023/02/11 12:38:58;;;;;;;1.10;0.68;;;24.40;46.20;;;;;;5102355;28;20649;-52
2023/02/11 12:44:42;;;;;;;1.85;0.90;;;24.30;46.20;;;;;;5095443;22;20232;-48
2023/02/11 12:47:19;;;;;;;0.63;0.63;;;24.30;46.20;;;;;;5075068;28;20654;-47
2023/02/11 12:50:19;;;;;;;2.15;0.75;;;24.30;46.20;;;;;;5074863;28;20197;-51
2023/02/11 12:53:14;;;;;;;1.67;0.80;;;24.30;46.30;;;;;;5039471;28;20241;-51
2023/02/11 12:55:50;;;;;;;1.52;0.70;;;24.20;46.20;;;;;;5054655;28;20198;-47
2023/02/11 12:58:24;;;;;;;1.83;0.82;;;24.20;46.30;;;;;;5054951;28;20571;-46
2023/02/11 13:00:58;;;;;;;1.65;0.70;;;24.20;46.20;;;;;;5054937;28;20695;-46
2023/02/11 13:03:36;;;;;;;1.00;0.80;;;24.20;46.30;;;;;;5054522;28;20231;-45
2023/02/11 13:06:09;;;;;;;0.90;0.50;;;24.20;46.30;;;;;;5054806;28;20202;-50
2023/02/11 13:08:44;;;;;;;1.73;0.70;;;24.10;46.30;;;;;;5054912;28;20655;-49
2023/02/11 13:11:22;;;;;;;1.70;0.70;;;24.10;46.30;;;;;;5054552;28;20578;-45
2023/02/11 13:13:57;;;;;;;0.73;0.70;;;24.10;46.30;;;;;;5054636;28;20214;-48
2023/02/11 13:16:38;;;;;;;1.80;0.70;;;24.10;46.30;;;;;;5054713;28;20199;-49
2023/02/11 13:19:19;;;;;;;1.83;0.88;;;24.00;46.30;;;;;;5054668;28;20223;-48
2023/02/11 13:22:08;;;;;;;0.90;0.75;;;24.00;46.40;;;;;;5054363;28;20270;-47
2023/02/11 13:24:45;;;;;;;1.67;0.60;;;24.00;46.40;;;;;;5053955;28;20200;-48
2023/02/11 13:27:31;;;;;;;2.47;0.70;;;24.00;46.40;;;;;;5054191;28;20257;-49
2023/02/11 13:30:31;;;;;;;1.00;0.75;;;24.00;46.40;;;;;;5034605;28;20648;-46
2023/02/11 13:33:22;;;;;;;1.48;0.90;;;24.00;46.40;;;;;;5032214;28;20207;-50
2023/02/11 13:36:20;;;;;;;1.25;0.77;;;24.00;46.40;;;;;;5034445;28;20211;-46
2023/02/11 13:39:00;;;;;;;0.98;0.88;;;23.90;46.40;;;;;;5052702;28;20678;-48